sensor_id;sensor_type;location;lat;lon;timestamp;temperature;humidity
46652;DHT22;32377;52.182;5.398;2024-02-21T00:01:39;10.60;99.90
46652;DHT22;32377;52.182;5.398;2024-02-21T00:04:04;10.60;99.90
46652;DHT22;32377;52.182;5.398;2024-02-21T00:06:31;10.60;99.90
46652;DHT22;32377;52.182;5.398;2024-02-21T00:08:56;10.60;99.90
46652;DHT22;32377;52.182;5.398;2024-02-21T00:11:22;10.60;99.90
46652;DHT22;32377;52.182;5.398;2024-02-21T00:13:48;10.60;99.90
46652;DHT22;32377;52.182;5.398;2024-02-21T00:16:13;10.60;99.90
46652;DHT22;32377;52.182;5.398;2024-02-21T00:18:41;10.60;99.90
46652;DHT22;32377;52.182;5.398;2024-02-21T00:21:06;10.60;99.90
46652;DHT22;32377;52.182;5.398;2024-02-21T00:23:32;10.50;99.90
46652;DHT22;32377;52.182;5.398;2024-02-21T00:25:58;10.60;99.90
46652;DHT22;32377;52.182;5.398;2024-02-21T00:28:23;10.60;99.90
46652;DHT22;32377;52.182;5.398;2024-02-21T00:30:49;10.60;99.90
46652;DHT22;32377;52.182;5.398;2024-02-21T00:33:16;10.60;99.90
46652;DHT22;32377;52.182;5.398;2024-02-21T00:35:42;10.60;99.90
46652;DHT22;32377;52.182;5.398;2024-02-21T00:38:08;10.60;99.90
46652;DHT22;32377;52.182;5.398;2024-02-21T00:40:34;10.60;99.90
46652;DHT22;32377;52.182;5.398;2024-02-21T00:43:00;10.60;99.90
46652;DHT22;32377;52.182;5.398;2024-02-21T00:45:26;10.60;99.90
46652;DHT22;32377;52.182;5.398;2024-02-21T00:47:51;10.60;99.90
46652;DHT22;32377;52.182;5.398;2024-02-21T00:50:17;10.60;99.90
46652;DHT22;32377;52.182;5.398;2024-02-21T00:52:43;10.60;99.90
46652;DHT22;32377;52.182;5.398;2024-02-21T00:55:10;10.60;99.90
46652;DHT22;32377;52.182;5.398;2024-02-21T00:57:35;10.60;99.90
46652;DHT22;32377;52.182;5.398;2024-02-21T01:00:03;10.60;99.90
46652;DHT22;32377;52.182;5.398;2024-02-21T01:02:28;10.70;99.90
46652;DHT22;32377;52.182;5.398;2024-02-21T01:04:57;10.70;99.90
46652;DHT22;32377;52.182;5.398;2024-02-21T01:07:22;10.70;99.90
46652;DHT22;32377;52.182;5.398;2024-02-21T01:09:48;10.70;99.90
46652;DHT22;32377;52.182;5.398;2024-02-21T01:12:13;10.60;99.90
46652;DHT22;32377;52.182;5.398;2024-02-21T01:14:39;10.60;99.90
46652;DHT22;32377;52.182;5.398;2024-02-21T01:17:05;10.70;99.90
46652;DHT22;32377;52.182;5.398;2024-02-21T01:19:31;10.60;99.90
46652;DHT22;32377;52.182;5.398;2024-02-21T01:21:57;10.60;99.90
46652;DHT22;32377;52.182;5.398;2024-02-21T01:24:22;10.70;99.90
46652;DHT22;32377;52.182;5.398;2024-02-21T01:26:49;10.60;99.90
46652;DHT22;32377;52.182;5.398;2024-02-21T01:29:15;10.70;99.90
46652;DHT22;32377;52.182;5.398;2024-02-21T01:31:40;10.70;99.90
46652;DHT22;32377;52.182;5.398;2024-02-21T01:34:06;10.70;99.90
46652;DHT22;32377;52.182;5.398;2024-02-21T01:36:32;10.70;99.90
46652;DHT22;32377;52.182;5.398;2024-02-21T01:38:58;10.70;99.90
46652;DHT22;32377;52.182;5.398;2024-02-21T01:41:23;10.70;99.90
46652;DHT22;32377;52.182;5.398;2024-02-21T01:43:49;10.70;99.90
46652;DHT22;32377;52.182;5.398;2024-02-21T01:46:15;10.70;99.90
46652;DHT22;32377;52.182;5.398;2024-02-21T01:48:41;10.70;99.90
46652;DHT22;32377;52.182;5.398;2024-02-21T01:51:07;10.70;99.90
46652;DHT22;32377;52.182;5.398;2024-02-21T01:53:36;10.70;99.90
46652;DHT22;32377;52.182;5.398;2024-02-21T01:56:03;10.70;99.90
46652;DHT22;32377;52.182;5.398;2024-02-21T01:58:31;10.70;99.90
46652;DHT22;32377;52.182;5.398;2024-02-21T02:00:59;10.70;99.90
46652;DHT22;32377;52.182;5.398;2024-02-21T02:03:25;10.70;99.90
46652;DHT22;32377;52.182;5.398;2024-02-21T02:05:51;10.70;99.90
46652;DHT22;32377;52.182;5.398;2024-02-21T02:08:20;10.70;99.90
46652;DHT22;32377;52.182;5.398;2024-02-21T02:10:47;10.70;99.90
46652;DHT22;32377;52.182;5.398;2024-02-21T02:13:13;10.70;99.90
46652;DHT22;32377;52.182;5.398;2024-02-21T02:15:43;10.70;99.90
46652;DHT22;32377;52.182;5.398;2024-02-21T02:18:10;10.70;99.90
46652;DHT22;32377;52.182;5.398;2024-02-21T02:20:36;10.70;99.90
46652;DHT22;32377;52.182;5.398;2024-02-21T02:23:11;10.70;99.90
46652;DHT22;32377;52.182;5.398;2024-02-21T02:25:37;10.70;99.90
46652;DHT22;32377;52.182;5.398;2024-02-21T02:28:04;10.70;99.90
46652;DHT22;32377;52.182;5.398;2024-02-21T02:30:32;10.70;99.90
46652;DHT22;32377;52.182;5.398;2024-02-21T02:32:58;10.60;99.90
46652;DHT22;32377;52.182;5.398;2024-02-21T02:35:24;10.60;99.90
46652;DHT22;32377;52.182;5.398;2024-02-21T02:37:50;10.60;99.90
46652;DHT22;32377;52.182;5.398;2024-02-21T02:40:16;10.60;99.90
46652;DHT22;32377;52.182;5.398;2024-02-21T02:42:42;10.60;99.90
46652;DHT22;32377;52.182;5.398;2024-02-21T02:45:08;10.60;99.90
46652;DHT22;32377;52.182;5.398;2024-02-21T02:47:33;10.70;99.90
46652;DHT22;32377;52.182;5.398;2024-02-21T02:50:00;10.60;99.90
46652;DHT22;32377;52.182;5.398;2024-02-21T02:52:26;10.70;99.90
46652;DHT22;32377;52.182;5.398;2024-02-21T02:54:51;10.70;99.90
46652;DHT22;32377;52.182;5.398;2024-02-21T02:57:18;10.70;99.90
46652;DHT22;32377;52.182;5.398;2024-02-21T02:59:50;10.70;99.90
46652;DHT22;32377;52.182;5.398;2024-02-21T03:02:16;10.60;99.90
46652;DHT22;32377;52.182;5.398;2024-02-21T03:04:42;10.60;99.90
46652;DHT22;32377;52.182;5.398;2024-02-21T03:07:08;10.70;99.90
46652;DHT22;32377;52.182;5.398;2024-02-21T03:09:34;10.70;99.90
46652;DHT22;32377;52.182;5.398;2024-02-21T03:11:59;10.70;99.90
46652;DHT22;32377;52.182;5.398;2024-02-21T03:14:31;10.60;99.90
46652;DHT22;32377;52.182;5.398;2024-02-21T03:16:58;10.60;99.90
46652;DHT22;32377;52.182;5.398;2024-02-21T03:19:24;10.60;99.90
46652;DHT22;32377;52.182;5.398;2024-02-21T03:21:50;10.60;99.90
46652;DHT22;32377;52.182;5.398;2024-02-21T03:24:16;10.60;99.90
46652;DHT22;32377;52.182;5.398;2024-02-21T03:26:42;10.60;99.90
46652;DHT22;32377;52.182;5.398;2024-02-21T03:29:08;10.60;99.90
46652;DHT22;32377;52.182;5.398;2024-02-21T03:31:37;10.60;99.90
46652;DHT22;32377;52.182;5.398;2024-02-21T03:34:03;10.60;99.90
46652;DHT22;32377;52.182;5.398;2024-02-21T03:36:28;10.60;99.90
46652;DHT22;32377;52.182;5.398;2024-02-21T03:38:55;10.60;99.90
46652;DHT22;32377;52.182;5.398;2024-02-21T03:41:21;10.60;99.90
46652;DHT22;32377;52.182;5.398;2024-02-21T03:43:46;10.60;99.90
46652;DHT22;32377;52.182;5.398;2024-02-21T03:46:12;10.60;99.90
46652;DHT22;32377;52.182;5.398;2024-02-21T03:48:38;10.60;99.90
46652;DHT22;32377;52.182;5.398;2024-02-21T03:51:04;10.60;99.90
46652;DHT22;32377;52.182;5.398;2024-02-21T03:53:30;10.60;99.90
46652;DHT22;32377;52.182;5.398;2024-02-21T03:55:55;10.60;99.90
46652;DHT22;32377;52.182;5.398;2024-02-21T03:58:21;10.50;99.90
46652;DHT22;32377;52.182;5.398;2024-02-21T04:00:47;10.60;99.90
46652;DHT22;32377;52.182;5.398;2024-02-21T04:03:13;10.60;99.90
46652;DHT22;32377;52.182;5.398;2024-02-21T04:05:39;10.60;99.90
46652;DHT22;32377;52.182;5.398;2024-02-21T04:08:05;10.60;99.90
46652;DHT22;32377;52.182;5.398;2024-02-21T04:10:31;10.60;99.90
46652;DHT22;32377;52.182;5.398;2024-02-21T04:12:57;10.60;99.90
46652;DHT22;32377;52.182;5.398;2024-02-21T04:15:23;10.50;99.90
46652;DHT22;32377;52.182;5.398;2024-02-21T04:17:48;10.50;99.90
46652;DHT22;32377;52.182;5.398;2024-02-21T04:20:15;10.50;99.90
46652;DHT22;32377;52.182;5.398;2024-02-21T04:22:43;10.50;99.90
46652;DHT22;32377;52.182;5.398;2024-02-21T04:25:10;10.50;99.90
46652;DHT22;32377;52.182;5.398;2024-02-21T04:27:39;10.50;99.90
46652;DHT22;32377;52.182;5.398;2024-02-21T04:30:05;10.50;99.90
46652;DHT22;32377;52.182;5.398;2024-02-21T04:32:31;10.60;99.90
46652;DHT22;32377;52.182;5.398;2024-02-21T04:34:57;10.60;99.90
46652;DHT22;32377;52.182;5.398;2024-02-21T04:37:23;10.50;99.90
46652;DHT22;32377;52.182;5.398;2024-02-21T04:39:50;10.40;99.90
46652;DHT22;32377;52.182;5.398;2024-02-21T04:42:15;10.40;99.90
46652;DHT22;32377;52.182;5.398;2024-02-21T04:44:41;10.40;99.90
46652;DHT22;32377;52.182;5.398;2024-02-21T04:47:07;10.40;99.90
46652;DHT22;32377;52.182;5.398;2024-02-21T04:49:34;10.50;99.90
46652;DHT22;32377;52.182;5.398;2024-02-21T04:52:00;10.50;99.90
46652;DHT22;32377;52.182;5.398;2024-02-21T04:54:25;10.40;99.90
46652;DHT22;32377;52.182;5.398;2024-02-21T04:59:25;10.40;99.90
46652;DHT22;32377;52.182;5.398;2024-02-21T05:01:51;10.40;99.90
46652;DHT22;32377;52.182;5.398;2024-02-21T05:04:17;10.40;99.90
46652;DHT22;32377;52.182;5.398;2024-02-21T05:06:44;10.40;99.90
46652;DHT22;32377;52.182;5.398;2024-02-21T05:09:12;10.40;99.90
46652;DHT22;32377;52.182;5.398;2024-02-21T05:11:38;10.40;99.90
46652;DHT22;32377;52.182;5.398;2024-02-21T05:14:04;10.40;99.90
46652;DHT22;32377;52.182;5.398;2024-02-21T05:16:30;10.40;99.90
46652;DHT22;32377;52.182;5.398;2024-02-21T05:18:56;10.40;99.90
46652;DHT22;32377;52.182;5.398;2024-02-21T05:21:25;10.40;99.90
46652;DHT22;32377;52.182;5.398;2024-02-21T05:23:52;10.40;99.90
46652;DHT22;32377;52.182;5.398;2024-02-21T05:26:28;10.40;99.90
46652;DHT22;32377;52.182;5.398;2024-02-21T05:28:54;10.40;99.90
46652;DHT22;32377;52.182;5.398;2024-02-21T05:31:20;10.40;99.90
46652;DHT22;32377;52.182;5.398;2024-02-21T05:33:46;10.40;99.90
46652;DHT22;32377;52.182;5.398;2024-02-21T05:36:13;10.40;99.90
46652;DHT22;32377;52.182;5.398;2024-02-21T05:38:39;10.40;99.90
46652;DHT22;32377;52.182;5.398;2024-02-21T05:41:04;10.40;99.90
46652;DHT22;32377;52.182;5.398;2024-02-21T05:43:30;10.40;99.90
46652;DHT22;32377;52.182;5.398;2024-02-21T05:45:55;10.40;99.90
46652;DHT22;32377;52.182;5.398;2024-02-21T05:48:24;10.40;99.90
46652;DHT22;32377;52.182;5.398;2024-02-21T05:50:50;10.40;99.90
46652;DHT22;32377;52.182;5.398;2024-02-21T05:53:16;10.40;99.90
46652;DHT22;32377;52.182;5.398;2024-02-21T05:55:42;10.40;99.90
46652;DHT22;32377;52.182;5.398;2024-02-21T05:58:07;10.40;99.90
46652;DHT22;32377;52.182;5.398;2024-02-21T06:00:37;10.40;99.90
46652;DHT22;32377;52.182;5.398;2024-02-21T06:03:02;10.40;99.90
46652;DHT22;32377;52.182;5.398;2024-02-21T06:05:28;10.40;99.90
46652;DHT22;32377;52.182;5.398;2024-02-21T06:07:54;10.40;99.90
46652;DHT22;32377;52.182;5.398;2024-02-21T06:10:19;10.50;99.90
46652;DHT22;32377;52.182;5.398;2024-02-21T06:12:45;10.40;99.90
46652;DHT22;32377;52.182;5.398;2024-02-21T06:15:10;10.40;99.90
46652;DHT22;32377;52.182;5.398;2024-02-21T06:17:36;10.40;99.90
46652;DHT22;32377;52.182;5.398;2024-02-21T06:20:02;10.40;99.90
46652;DHT22;32377;52.182;5.398;2024-02-21T06:22:27;10.30;99.90
46652;DHT22;32377;52.182;5.398;2024-02-21T06:24:53;10.30;99.90
46652;DHT22;32377;52.182;5.398;2024-02-21T06:27:19;10.30;99.90
46652;DHT22;32377;52.182;5.398;2024-02-21T06:29:45;10.30;99.90
46652;DHT22;32377;52.182;5.398;2024-02-21T06:32:10;10.30;99.90
46652;DHT22;32377;52.182;5.398;2024-02-21T06:34:36;10.40;99.90
46652;DHT22;32377;52.182;5.398;2024-02-21T06:37:02;10.30;99.90
46652;DHT22;32377;52.182;5.398;2024-02-21T06:39:28;10.40;99.90
46652;DHT22;32377;52.182;5.398;2024-02-21T06:41:54;10.30;99.90
46652;DHT22;32377;52.182;5.398;2024-02-21T06:44:21;10.30;99.90
46652;DHT22;32377;52.182;5.398;2024-02-21T06:46:47;10.40;99.90
46652;DHT22;32377;52.182;5.398;2024-02-21T06:49:12;10.40;99.90
46652;DHT22;32377;52.182;5.398;2024-02-21T06:51:44;10.40;99.90
46652;DHT22;32377;52.182;5.398;2024-02-21T06:54:10;10.40;99.90
46652;DHT22;32377;52.182;5.398;2024-02-21T06:56:36;10.40;99.90
46652;DHT22;32377;52.182;5.398;2024-02-21T06:59:02;10.40;99.90
46652;DHT22;32377;52.182;5.398;2024-02-21T07:01:31;10.40;99.90
46652;DHT22;32377;52.182;5.398;2024-02-21T07:03:57;10.30;99.90
46652;DHT22;32377;52.182;5.398;2024-02-21T07:06:23;10.30;99.90
46652;DHT22;32377;52.182;5.398;2024-02-21T07:08:48;10.30;99.90
46652;DHT22;32377;52.182;5.398;2024-02-21T07:11:14;10.30;99.90
46652;DHT22;32377;52.182;5.398;2024-02-21T07:13:40;10.30;99.90
46652;DHT22;32377;52.182;5.398;2024-02-21T07:16:06;10.30;99.90
46652;DHT22;32377;52.182;5.398;2024-02-21T07:18:32;10.30;99.90
46652;DHT22;32377;52.182;5.398;2024-02-21T07:20:58;10.30;99.90
46652;DHT22;32377;52.182;5.398;2024-02-21T07:23:24;10.40;99.90
46652;DHT22;32377;52.182;5.398;2024-02-21T07:25:49;10.40;99.90
46652;DHT22;32377;52.182;5.398;2024-02-21T07:28:15;10.30;99.90
46652;DHT22;32377;52.182;5.398;2024-02-21T07:30:42;10.30;99.90
46652;DHT22;32377;52.182;5.398;2024-02-21T07:33:07;10.30;99.90
46652;DHT22;32377;52.182;5.398;2024-02-21T07:35:33;10.30;99.90
46652;DHT22;32377;52.182;5.398;2024-02-21T07:37:58;10.40;99.90
46652;DHT22;32377;52.182;5.398;2024-02-21T07:40:24;10.40;99.90
46652;DHT22;32377;52.182;5.398;2024-02-21T07:42:50;10.40;99.90
46652;DHT22;32377;52.182;5.398;2024-02-21T07:45:15;10.40;99.90
46652;DHT22;32377;52.182;5.398;2024-02-21T07:47:41;10.40;99.90
46652;DHT22;32377;52.182;5.398;2024-02-21T07:50:07;10.50;99.90
46652;DHT22;32377;52.182;5.398;2024-02-21T07:52:33;10.50;99.90
46652;DHT22;32377;52.182;5.398;2024-02-21T07:54:58;10.50;99.90
46652;DHT22;32377;52.182;5.398;2024-02-21T07:57:24;10.50;99.90
46652;DHT22;32377;52.182;5.398;2024-02-21T07:59:50;10.50;99.90
46652;DHT22;32377;52.182;5.398;2024-02-21T08:02:15;10.50;99.90
46652;DHT22;32377;52.182;5.398;2024-02-21T08:04:41;10.50;99.90
46652;DHT22;32377;52.182;5.398;2024-02-21T08:07:07;10.60;99.90
46652;DHT22;32377;52.182;5.398;2024-02-21T08:09:33;10.50;99.90
46652;DHT22;32377;52.182;5.398;2024-02-21T08:11:58;10.60;99.90
46652;DHT22;32377;52.182;5.398;2024-02-21T08:14:24;10.60;99.90
46652;DHT22;32377;52.182;5.398;2024-02-21T08:16:53;10.60;97.70
46652;DHT22;32377;52.182;5.398;2024-02-21T08:19:20;10.60;89.00
46652;DHT22;32377;52.182;5.398;2024-02-21T08:21:45;10.60;70.90
46652;DHT22;32377;52.182;5.398;2024-02-21T08:24:14;10.60;50.40
46652;DHT22;32377;52.182;5.398;2024-02-21T08:26:44;10.60;28.20
46652;DHT22;32377;52.182;5.398;2024-02-21T08:29:12;10.70;26.40
46652;DHT22;32377;52.182;5.398;2024-02-21T08:31:38;10.70;7.40
46652;DHT22;32377;52.182;5.398;2024-02-21T08:34:04;10.80;1.00
46652;DHT22;32377;52.182;5.398;2024-02-21T08:36:30;10.80;1.00
46652;DHT22;32377;52.182;5.398;2024-02-21T08:38:56;10.80;1.00
46652;DHT22;32377;52.182;5.398;2024-02-21T08:41:25;10.80;99.90
46652;DHT22;32377;52.182;5.398;2024-02-21T08:43:52;10.90;99.90
46652;DHT22;32377;52.182;5.398;2024-02-21T08:46:19;10.90;99.90
46652;DHT22;32377;52.182;5.398;2024-02-21T08:48:45;10.90;99.90
46652;DHT22;32377;52.182;5.398;2024-02-21T08:51:12;11.00;99.90
46652;DHT22;32377;52.182;5.398;2024-02-21T08:53:37;11.00;99.90
46652;DHT22;32377;52.182;5.398;2024-02-21T08:56:04;10.90;99.90
46652;DHT22;32377;52.182;5.398;2024-02-21T08:58:29;11.00;99.90
46652;DHT22;32377;52.182;5.398;2024-02-21T09:00:55;11.10;99.90
46652;DHT22;32377;52.182;5.398;2024-02-21T09:03:22;11.10;99.90
46652;DHT22;32377;52.182;5.398;2024-02-21T09:05:47;11.20;99.90
46652;DHT22;32377;52.182;5.398;2024-02-21T09:08:13;11.20;99.90
46652;DHT22;32377;52.182;5.398;2024-02-21T09:10:39;11.20;99.90
46652;DHT22;32377;52.182;5.398;2024-02-21T09:13:05;11.20;99.90
46652;DHT22;32377;52.182;5.398;2024-02-21T09:15:32;11.20;99.90
46652;DHT22;32377;52.182;5.398;2024-02-21T09:17:58;11.30;95.20
46652;DHT22;32377;52.182;5.398;2024-02-21T09:20:23;11.30;76.00
46652;DHT22;32377;52.182;5.398;2024-02-21T09:22:49;11.40;11.40
46652;DHT22;32377;52.182;5.398;2024-02-21T09:25:14;11.30;10.30
46652;DHT22;32377;52.182;5.398;2024-02-21T09:27:40;11.40;1.00
46652;DHT22;32377;52.182;5.398;2024-02-21T09:30:06;11.40;1.00
46652;DHT22;32377;52.182;5.398;2024-02-21T09:32:32;11.50;1.00
46652;DHT22;32377;52.182;5.398;2024-02-21T09:34:58;11.40;1.00
46652;DHT22;32377;52.182;5.398;2024-02-21T09:37:24;11.40;1.00
46652;DHT22;32377;52.182;5.398;2024-02-21T09:39:49;11.40;99.90
46652;DHT22;32377;52.182;5.398;2024-02-21T09:42:20;11.50;99.90
46652;DHT22;32377;52.182;5.398;2024-02-21T09:44:46;11.50;99.90
46652;DHT22;32377;52.182;5.398;2024-02-21T09:47:33;11.50;99.90
46652;DHT22;32377;52.182;5.398;2024-02-21T09:50:00;11.60;99.90
46652;DHT22;32377;52.182;5.398;2024-02-21T09:52:27;11.50;99.90
46652;DHT22;32377;52.182;5.398;2024-02-21T09:54:53;11.60;99.90
46652;DHT22;32377;52.182;5.398;2024-02-21T09:57:20;11.70;99.90
46652;DHT22;32377;52.182;5.398;2024-02-21T09:59:47;11.70;99.90
46652;DHT22;32377;52.182;5.398;2024-02-21T10:02:12;11.70;99.90
46652;DHT22;32377;52.182;5.398;2024-02-21T10:04:40;11.70;99.90
46652;DHT22;32377;52.182;5.398;2024-02-21T10:07:06;11.80;99.90
46652;DHT22;32377;52.182;5.398;2024-02-21T10:09:32;11.90;99.90
46652;DHT22;32377;52.182;5.398;2024-02-21T10:12:12;11.80;99.90
46652;DHT22;32377;52.182;5.398;2024-02-21T10:14:38;11.90;99.90
46652;DHT22;32377;52.182;5.398;2024-02-21T10:17:04;11.80;99.90
46652;DHT22;32377;52.182;5.398;2024-02-21T10:19:34;11.80;99.90
46652;DHT22;32377;52.182;5.398;2024-02-21T10:22:05;11.90;99.90
46652;DHT22;32377;52.182;5.398;2024-02-21T10:24:31;11.80;99.90
46652;DHT22;32377;52.182;5.398;2024-02-21T10:27:07;11.90;99.90
46652;DHT22;32377;52.182;5.398;2024-02-21T10:29:39;12.10;99.90
46652;DHT22;32377;52.182;5.398;2024-02-21T10:34:31;12.00;30.00
46652;DHT22;32377;52.182;5.398;2024-02-21T10:37:04;12.00;63.80
46652;DHT22;32377;52.182;5.398;2024-02-21T10:39:32;12.00;62.90
46652;DHT22;32377;52.182;5.398;2024-02-21T10:42:00;12.30;75.20
46652;DHT22;32377;52.182;5.398;2024-02-21T10:44:30;12.30;55.80
46652;DHT22;32377;52.182;5.398;2024-02-21T10:46:56;12.30;36.90
46652;DHT22;32377;52.182;5.398;2024-02-21T10:49:23;12.30;22.80
46652;DHT22;32377;52.182;5.398;2024-02-21T10:52:13;12.20;12.50
46652;DHT22;32377;52.182;5.398;2024-02-21T10:54:48;12.20;8.00
46652;DHT22;32377;52.182;5.398;2024-02-21T10:59:20;12.10;37.70
46652;DHT22;32377;52.182;5.398;2024-02-21T11:01:47;12.10;65.60
46652;DHT22;32377;52.182;5.398;2024-02-21T11:04:13;12.20;67.40
46652;DHT22;32377;52.182;5.398;2024-02-21T11:06:40;12.20;62.60
46652;DHT22;32377;52.182;5.398;2024-02-21T11:09:08;12.10;69.60
46652;DHT22;32377;52.182;5.398;2024-02-21T11:11:35;12.10;70.20
46652;DHT22;32377;52.182;5.398;2024-02-21T11:14:11;12.00;92.30
46652;DHT22;32377;52.182;5.398;2024-02-21T11:16:41;12.00;99.40
46652;DHT22;32377;52.182;5.398;2024-02-21T11:21:44;12.00;99.90
46652;DHT22;32377;52.182;5.398;2024-02-21T11:24:10;12.00;99.90
46652;DHT22;32377;52.182;5.398;2024-02-21T11:26:37;11.90;99.90
46652;DHT22;32377;52.182;5.398;2024-02-21T11:29:03;11.90;99.90
46652;DHT22;32377;52.182;5.398;2024-02-21T11:31:44;12.00;99.90
46652;DHT22;32377;52.182;5.398;2024-02-21T11:34:17;11.90;99.90
46652;DHT22;32377;52.182;5.398;2024-02-21T11:36:52;11.80;99.90
46652;DHT22;32377;52.182;5.398;2024-02-21T11:39:23;11.70;99.90
46652;DHT22;32377;52.182;5.398;2024-02-21T11:42:06;11.70;99.90
46652;DHT22;32377;52.182;5.398;2024-02-21T11:44:36;11.70;99.90
46652;DHT22;32377;52.182;5.398;2024-02-21T11:47:08;11.60;99.90
46652;DHT22;32377;52.182;5.398;2024-02-21T11:49:45;11.60;99.90
46652;DHT22;32377;52.182;5.398;2024-02-21T11:52:24;11.60;99.90
46652;DHT22;32377;52.182;5.398;2024-02-21T11:54:51;11.60;99.90
46652;DHT22;32377;52.182;5.398;2024-02-21T11:57:18;11.70;99.90
46652;DHT22;32377;52.182;5.398;2024-02-21T11:59:45;11.60;99.90
46652;DHT22;32377;52.182;5.398;2024-02-21T12:02:11;11.50;99.90
46652;DHT22;32377;52.182;5.398;2024-02-21T12:04:37;11.60;99.90
46652;DHT22;32377;52.182;5.398;2024-02-21T12:07:03;11.70;99.90
46652;DHT22;32377;52.182;5.398;2024-02-21T12:09:30;11.90;99.90
46652;DHT22;32377;52.182;5.398;2024-02-21T12:12:00;12.10;99.90
46652;DHT22;32377;52.182;5.398;2024-02-21T12:14:27;12.30;99.90
46652;DHT22;32377;52.182;5.398;2024-02-21T12:16:54;12.30;99.90
46652;DHT22;32377;52.182;5.398;2024-02-21T12:19:20;12.30;99.90
46652;DHT22;32377;52.182;5.398;2024-02-21T12:21:48;12.40;99.90
46652;DHT22;32377;52.182;5.398;2024-02-21T12:24:22;12.40;92.60
46652;DHT22;32377;52.182;5.398;2024-02-21T12:26:49;12.50;60.00
46652;DHT22;32377;52.182;5.398;2024-02-21T12:29:15;12.70;43.90
46652;DHT22;32377;52.182;5.398;2024-02-21T12:31:41;12.60;6.40
46652;DHT22;32377;52.182;5.398;2024-02-21T12:34:06;12.60;1.00
46652;DHT22;32377;52.182;5.398;2024-02-21T12:36:40;12.70;1.00
46652;DHT22;32377;52.182;5.398;2024-02-21T12:39:07;12.70;1.00
46652;DHT22;32377;52.182;5.398;2024-02-21T12:41:34;12.90;1.00
46652;DHT22;32377;52.182;5.398;2024-02-21T12:44:02;12.90;1.00
46652;DHT22;32377;52.182;5.398;2024-02-21T12:46:29;12.90;1.00
46652;DHT22;32377;52.182;5.398;2024-02-21T12:48:54;12.80;1.00
46652;DHT22;32377;52.182;5.398;2024-02-21T12:51:20;12.90;1.00
46652;DHT22;32377;52.182;5.398;2024-02-21T12:53:47;12.80;1.00
46652;DHT22;32377;52.182;5.398;2024-02-21T12:56:15;12.70;1.00
46652;DHT22;32377;52.182;5.398;2024-02-21T12:58:40;12.80;1.00
46652;DHT22;32377;52.182;5.398;2024-02-21T13:01:06;12.90;1.00
46652;DHT22;32377;52.182;5.398;2024-02-21T13:03:32;12.80;1.00
46652;DHT22;32377;52.182;5.398;2024-02-21T13:05:57;12.90;1.00
46652;DHT22;32377;52.182;5.398;2024-02-21T13:08:24;12.80;1.00
46652;DHT22;32377;52.182;5.398;2024-02-21T13:10:50;12.90;1.00
46652;DHT22;32377;52.182;5.398;2024-02-21T13:13:16;12.80;1.00
46652;DHT22;32377;52.182;5.398;2024-02-21T13:15:41;12.90;1.00
46652;DHT22;32377;52.182;5.398;2024-02-21T13:18:10;13.00;1.00
46652;DHT22;32377;52.182;5.398;2024-02-21T13:20:36;13.00;1.00
46652;DHT22;32377;52.182;5.398;2024-02-21T13:23:02;13.00;1.00
46652;DHT22;32377;52.182;5.398;2024-02-21T13:25:28;13.00;1.00
46652;DHT22;32377;52.182;5.398;2024-02-21T13:27:54;12.90;1.00
46652;DHT22;32377;52.182;5.398;2024-02-21T13:30:21;12.80;1.00
46652;DHT22;32377;52.182;5.398;2024-02-21T13:32:47;12.70;1.00
46652;DHT22;32377;52.182;5.398;2024-02-21T13:35:12;12.70;1.00
46652;DHT22;32377;52.182;5.398;2024-02-21T13:37:39;12.60;1.00
46652;DHT22;32377;52.182;5.398;2024-02-21T13:40:05;12.60;1.00
46652;DHT22;32377;52.182;5.398;2024-02-21T13:42:31;12.50;1.00
46652;DHT22;32377;52.182;5.398;2024-02-21T13:44:57;12.50;1.00
46652;DHT22;32377;52.182;5.398;2024-02-21T13:47:22;12.50;1.00
46652;DHT22;32377;52.182;5.398;2024-02-21T13:49:48;12.50;1.00
46652;DHT22;32377;52.182;5.398;2024-02-21T13:52:14;12.50;1.00
46652;DHT22;32377;52.182;5.398;2024-02-21T13:54:40;12.50;1.00
46652;DHT22;32377;52.182;5.398;2024-02-21T13:57:05;12.50;1.00
46652;DHT22;32377;52.182;5.398;2024-02-21T13:59:31;12.50;1.00
46652;DHT22;32377;52.182;5.398;2024-02-21T14:01:59;12.50;1.00
46652;DHT22;32377;52.182;5.398;2024-02-21T14:04:24;12.50;1.00
46652;DHT22;32377;52.182;5.398;2024-02-21T14:06:50;12.50;1.00
46652;DHT22;32377;52.182;5.398;2024-02-21T14:09:16;12.50;1.00
46652;DHT22;32377;52.182;5.398;2024-02-21T14:11:41;12.40;1.00
46652;DHT22;32377;52.182;5.398;2024-02-21T14:14:07;12.40;1.00
46652;DHT22;32377;52.182;5.398;2024-02-21T14:16:33;12.30;6.20
46652;DHT22;32377;52.182;5.398;2024-02-21T14:18:59;12.30;6.50
46652;DHT22;32377;52.182;5.398;2024-02-21T14:21:24;12.30;19.90
46652;DHT22;32377;52.182;5.398;2024-02-21T14:23:51;12.30;9.60
46652;DHT22;32377;52.182;5.398;2024-02-21T14:26:18;12.30;5.90
46652;DHT22;32377;52.182;5.398;2024-02-21T14:28:43;12.30;1.70
46652;DHT22;32377;52.182;5.398;2024-02-21T14:31:09;12.30;14.40
46652;DHT22;32377;52.182;5.398;2024-02-21T14:33:35;12.30;1.10
46652;DHT22;32377;52.182;5.398;2024-02-21T14:36:01;12.30;1.00
46652;DHT22;32377;52.182;5.398;2024-02-21T14:38:28;12.30;1.00
46652;DHT22;32377;52.182;5.398;2024-02-21T14:40:53;12.40;1.00
46652;DHT22;32377;52.182;5.398;2024-02-21T14:43:19;12.30;1.00
46652;DHT22;32377;52.182;5.398;2024-02-21T14:45:47;12.30;1.00
46652;DHT22;32377;52.182;5.398;2024-02-21T14:48:13;12.30;1.00
46652;DHT22;32377;52.182;5.398;2024-02-21T14:50:39;12.30;10.50
46652;DHT22;32377;52.182;5.398;2024-02-21T14:53:05;12.20;2.30
46652;DHT22;32377;52.182;5.398;2024-02-21T14:55:30;12.20;14.90
46652;DHT22;32377;52.182;5.398;2024-02-21T14:57:56;12.10;33.20
46652;DHT22;32377;52.182;5.398;2024-02-21T15:00:21;12.00;54.10
46652;DHT22;32377;52.182;5.398;2024-02-21T15:02:57;12.00;96.10
46652;DHT22;32377;52.182;5.398;2024-02-21T15:05:23;12.00;99.90
46652;DHT22;32377;52.182;5.398;2024-02-21T15:07:50;11.90;99.90
46652;DHT22;32377;52.182;5.398;2024-02-21T15:10:16;11.80;99.90
46652;DHT22;32377;52.182;5.398;2024-02-21T15:12:45;11.70;99.90
46652;DHT22;32377;52.182;5.398;2024-02-21T15:15:10;11.70;99.90
46652;DHT22;32377;52.182;5.398;2024-02-21T15:17:36;11.50;99.90
46652;DHT22;32377;52.182;5.398;2024-02-21T15:20:02;11.40;99.90
46652;DHT22;32377;52.182;5.398;2024-02-21T15:22:30;11.30;1.00
46652;DHT22;32377;52.182;5.398;2024-02-21T15:24:55;11.20;1.00
46652;DHT22;32377;52.182;5.398;2024-02-21T15:27:21;11.10;91.80
46652;DHT22;32377;52.182;5.398;2024-02-21T15:29:46;11.10;99.90
46652;DHT22;32377;52.182;5.398;2024-02-21T15:32:12;11.00;99.90
46652;DHT22;32377;52.182;5.398;2024-02-21T15:34:38;10.90;99.90
46652;DHT22;32377;52.182;5.398;2024-02-21T15:37:03;10.90;1.00
46652;DHT22;32377;52.182;5.398;2024-02-21T15:39:29;10.80;1.00